Cyclone, Texas
Current Conditions -  °F | °C
As of 3:15 PM on Wednesday 26 Nov 2014 (Local Time) from KT35 Reporting Station
Clear Clear  
Wind Chill: 22°   Ceiling: Unl
Heat Index: 22°   Visibility: 10mi
Dew Point:   Wind: 7mph
Humidity: 23%   Direction: 280°W
Pressure: 30.16"   Gusts: NA
Location:  30.9882°N, 97.103°W
Report Text: KT35 262115Z AUTO 28006KT 10SM CLR 22/00 A3016 RMK AO2 T02210000
Loading
Personal Weather Stations






























Interactive Weather Map New forecast layout! Learn more

10-Day Weather Forecast

Advertisements
Track Severe Weather on mobile